sensor_id;sensor_type;location;lat;lon;timestamp;P1;durP1;ratioP1;P2;durP2;ratioP2
37221;SDS011;23119;51.842;-2.230;2023-02-17T00:01:28;3.45;;;2.05;;
37221;SDS011;23119;51.842;-2.230;2023-02-17T00:03:56;2.88;;;1.70;;
37221;SDS011;23119;51.842;-2.230;2023-02-17T00:06:25;3.58;;;1.90;;
37221;SDS011;23119;51.842;-2.230;2023-02-17T00:08:56;3.50;;;1.75;;
37221;SDS011;23119;51.842;-2.230;2023-02-17T00:11:24;3.25;;;1.52;;
37221;SDS011;23119;51.842;-2.230;2023-02-17T00:13:52;2.55;;;1.88;;
37221;SDS011;23119;51.842;-2.230;2023-02-17T00:16:19;3.35;;;1.65;;
37221;SDS011;23119;51.842;-2.230;2023-02-17T00:18:46;3.03;;;1.25;;
37221;SDS011;23119;51.842;-2.230;2023-02-17T00:21:23;4.00;;;1.70;;
37221;SDS011;23119;51.842;-2.230;2023-02-17T00:23:51;4.68;;;1.33;;
37221;SDS011;23119;51.842;-2.230;2023-02-17T00:26:17;3.92;;;1.33;;
37221;SDS011;23119;51.842;-2.230;2023-02-17T00:28:44;3.00;;;1.25;;
37221;SDS011;23119;51.842;-2.230;2023-02-17T00:31:15;2.78;;;1.50;;
37221;SDS011;23119;51.842;-2.230;2023-02-17T00:33:53;3.20;;;1.17;;
37221;SDS011;23119;51.842;-2.230;2023-02-17T00:36:19;1.50;;;0.47;;
37221;SDS011;23119;51.842;-2.230;2023-02-17T00:38:46;4.85;;;1.40;;
37221;SDS011;23119;51.842;-2.230;2023-02-17T00:41:12;1.63;;;0.82;;
37221;SDS011;23119;51.842;-2.230;2023-02-17T00:43:40;2.00;;;1.10;;
37221;SDS011;23119;51.842;-2.230;2023-02-17T00:46:06;4.72;;;1.05;;
37221;SDS011;23119;51.842;-2.230;2023-02-17T00:48:32;2.70;;;0.52;;
37221;SDS011;23119;51.842;-2.230;2023-02-17T00:50:58;1.17;;;0.50;;
37221;SDS011;23119;51.842;-2.230;2023-02-17T00:53:26;1.25;;;0.50;;
37221;SDS011;23119;51.842;-2.230;2023-02-17T00:55:55;1.50;;;0.50;;
37221;SDS011;23119;51.842;-2.230;2023-02-17T00:58:21;1.70;;;0.50;;
37221;SDS011;23119;51.842;-2.230;2023-02-17T01:00:53;1.35;;;0.50;;
37221;SDS011;23119;51.842;-2.230;2023-02-17T01:03:20;2.17;;;0.52;;
37221;SDS011;23119;51.842;-2.230;2023-02-17T01:05:49;0.75;;;0.43;;
37221;SDS011;23119;51.842;-2.230;2023-02-17T01:08:19;1.20;;;0.50;;
37221;SDS011;23119;51.842;-2.230;2023-02-17T01:10:45;2.97;;;0.57;;
37221;SDS011;23119;51.842;-2.230;2023-02-17T01:13:13;1.13;;;0.50;;
37221;SDS011;23119;51.842;-2.230;2023-02-17T01:15:46;2.28;;;0.40;;
37221;SDS011;23119;51.842;-2.230;2023-02-17T01:18:16;1.30;;;0.60;;
37221;SDS011;23119;51.842;-2.230;2023-02-17T01:20:44;2.20;;;0.40;;
37221;SDS011;23119;51.842;-2.230;2023-02-17T01:23:10;2.03;;;0.63;;
37221;SDS011;23119;51.842;-2.230;2023-02-17T01:25:37;1.50;;;0.40;;
37221;SDS011;23119;51.842;-2.230;2023-02-17T01:28:12;2.47;;;0.60;;
37221;SDS011;23119;51.842;-2.230;2023-02-17T01:30:42;2.83;;;0.50;;
37221;SDS011;23119;51.842;-2.230;2023-02-17T01:33:08;0.70;;;0.40;;
37221;SDS011;23119;51.842;-2.230;2023-02-17T01:35:39;1.65;;;0.50;;
37221;SDS011;23119;51.842;-2.230;2023-02-17T01:38:05;2.35;;;0.65;;
37221;SDS011;23119;51.842;-2.230;2023-02-17T01:40:33;3.30;;;0.50;;
37221;SDS011;23119;51.842;-2.230;2023-02-17T01:42:59;2.10;;;0.73;;
37221;SDS011;23119;51.842;-2.230;2023-02-17T01:45:31;2.67;;;0.70;;
37221;SDS011;23119;51.842;-2.230;2023-02-17T01:48:30;1.25;;;0.47;;
37221;SDS011;23119;51.842;-2.230;2023-02-17T01:51:21;2.90;;;0.20;;
37221;SDS011;23119;51.842;-2.230;2023-02-17T01:53:56;2.42;;;0.50;;
37221;SDS011;23119;51.842;-2.230;2023-02-17T01:56:26;1.15;;;0.43;;
37221;SDS011;23119;51.842;-2.230;2023-02-17T01:58:57;2.33;;;0.50;;
37221;SDS011;23119;51.842;-2.230;2023-02-17T02:01:28;1.88;;;0.80;;
37221;SDS011;23119;51.842;-2.230;2023-02-17T02:03:57;2.35;;;0.50;;
37221;SDS011;23119;51.842;-2.230;2023-02-17T02:06:27;2.75;;;0.55;;
37221;SDS011;23119;51.842;-2.230;2023-02-17T02:11:26;3.97;;;0.70;;
37221;SDS011;23119;51.842;-2.230;2023-02-17T02:13:51;2.83;;;0.63;;
37221;SDS011;23119;51.842;-2.230;2023-02-17T02:17:01;1.95;;;0.40;;
37221;SDS011;23119;51.842;-2.230;2023-02-17T02:27:55;1.27;;;0.43;;
37221;SDS011;23119;51.842;-2.230;2023-02-17T02:33:57;2.92;;;0.45;;
37221;SDS011;23119;51.842;-2.230;2023-02-17T02:36:28;1.50;;;0.65;;
37221;SDS011;23119;51.842;-2.230;2023-02-17T02:39:09;0.75;;;0.40;;
37221;SDS011;23119;51.842;-2.230;2023-02-17T02:41:42;3.40;;;0.50;;
37221;SDS011;23119;51.842;-2.230;2023-02-17T02:44:18;3.83;;;0.50;;
37221;SDS011;23119;51.842;-2.230;2023-02-17T02:46:54;1.95;;;0.40;;
37221;SDS011;23119;51.842;-2.230;2023-02-17T02:49:21;2.50;;;0.70;;
37221;SDS011;23119;51.842;-2.230;2023-02-17T02:57:35;1.30;;;0.30;;
37221;SDS011;23119;51.842;-2.230;2023-02-17T03:00:08;1.10;;;0.50;;
37221;SDS011;23119;51.842;-2.230;2023-02-17T03:03:00;1.13;;;0.50;;
37221;SDS011;23119;51.842;-2.230;2023-02-17T03:08:14;1.75;;;0.60;;
37221;SDS011;23119;51.842;-2.230;2023-02-17T03:10:50;1.48;;;0.60;;
37221;SDS011;23119;51.842;-2.230;2023-02-17T03:13:19;3.20;;;0.50;;
37221;SDS011;23119;51.842;-2.230;2023-02-17T03:15:45;2.95;;;0.52;;
37221;SDS011;23119;51.842;-2.230;2023-02-17T03:18:14;2.50;;;0.65;;
37221;SDS011;23119;51.842;-2.230;2023-02-17T03:20:42;3.63;;;0.60;;
37221;SDS011;23119;51.842;-2.230;2023-02-17T03:23:20;2.72;;;0.60;;
37221;SDS011;23119;51.842;-2.230;2023-02-17T03:25:51;1.07;;;0.53;;
37221;SDS011;23119;51.842;-2.230;2023-02-17T03:28:21;1.35;;;0.50;;
37221;SDS011;23119;51.842;-2.230;2023-02-17T03:30:54;1.90;;;0.50;;
37221;SDS011;23119;51.842;-2.230;2023-02-17T03:33:28;2.30;;;0.55;;
37221;SDS011;23119;51.842;-2.230;2023-02-17T03:35:54;3.33;;;0.60;;
37221;SDS011;23119;51.842;-2.230;2023-02-17T03:38:20;3.33;;;0.52;;
37221;SDS011;23119;51.842;-2.230;2023-02-17T03:40:48;3.55;;;0.50;;
37221;SDS011;23119;51.842;-2.230;2023-02-17T03:43:14;2.15;;;0.50;;
37221;SDS011;23119;51.842;-2.230;2023-02-17T03:45:43;2.88;;;0.57;;
37221;SDS011;23119;51.842;-2.230;2023-02-17T03:48:08;3.40;;;0.55;;
37221;SDS011;23119;51.842;-2.230;2023-02-17T03:50:34;3.97;;;0.70;;
37221;SDS011;23119;51.842;-2.230;2023-02-17T03:53:00;1.73;;;0.60;;
37221;SDS011;23119;51.842;-2.230;2023-02-17T03:55:29;2.65;;;0.70;;
37221;SDS011;23119;51.842;-2.230;2023-02-17T03:57:55;4.00;;;0.60;;
37221;SDS011;23119;51.842;-2.230;2023-02-17T04:00:20;2.38;;;1.08;;
37221;SDS011;23119;51.842;-2.230;2023-02-17T04:02:48;1.08;;;0.47;;
37221;SDS011;23119;51.842;-2.230;2023-02-17T04:05:16;1.27;;;0.50;;
37221;SDS011;23119;51.842;-2.230;2023-02-17T04:07:47;2.35;;;0.50;;
37221;SDS011;23119;51.842;-2.230;2023-02-17T04:10:16;1.48;;;0.50;;
37221;SDS011;23119;51.842;-2.230;2023-02-17T04:12:42;1.98;;;0.52;;
37221;SDS011;23119;51.842;-2.230;2023-02-17T04:15:07;1.65;;;0.45;;
37221;SDS011;23119;51.842;-2.230;2023-02-17T04:17:35;1.60;;;0.50;;
37221;SDS011;23119;51.842;-2.230;2023-02-17T04:20:04;2.47;;;0.40;;
37221;SDS011;23119;51.842;-2.230;2023-02-17T04:22:36;2.55;;;0.40;;
37221;SDS011;23119;51.842;-2.230;2023-02-17T04:25:02;1.77;;;0.40;;
37221;SDS011;23119;51.842;-2.230;2023-02-17T04:27:27;3.80;;;0.50;;
37221;SDS011;23119;51.842;-2.230;2023-02-17T04:29:56;2.17;;;0.50;;
37221;SDS011;23119;51.842;-2.230;2023-02-17T04:32:24;1.35;;;0.35;;
37221;SDS011;23119;51.842;-2.230;2023-02-17T04:34:51;2.80;;;0.45;;
37221;SDS011;23119;51.842;-2.230;2023-02-17T04:37:19;2.22;;;0.40;;
37221;SDS011;23119;51.842;-2.230;2023-02-17T04:39:50;1.40;;;0.47;;
37221;SDS011;23119;51.842;-2.230;2023-02-17T04:42:15;2.15;;;0.30;;
37221;SDS011;23119;51.842;-2.230;2023-02-17T04:44:41;2.47;;;0.40;;
37221;SDS011;23119;51.842;-2.230;2023-02-17T04:47:10;1.05;;;0.40;;
37221;SDS011;23119;51.842;-2.230;2023-02-17T04:49:35;3.65;;;0.50;;
37221;SDS011;23119;51.842;-2.230;2023-02-17T04:52:01;1.38;;;0.30;;
37221;SDS011;23119;51.842;-2.230;2023-02-17T04:54:29;3.45;;;0.50;;
37221;SDS011;23119;51.842;-2.230;2023-02-17T04:56:55;1.45;;;0.40;;
37221;SDS011;23119;51.842;-2.230;2023-02-17T04:59:21;2.72;;;0.35;;
37221;SDS011;23119;51.842;-2.230;2023-02-17T05:01:49;1.52;;;0.28;;
37221;SDS011;23119;51.842;-2.230;2023-02-17T05:04:15;2.80;;;0.38;;
37221;SDS011;23119;51.842;-2.230;2023-02-17T05:06:40;1.60;;;0.40;;
37221;SDS011;23119;51.842;-2.230;2023-02-17T05:09:06;2.95;;;0.30;;
37221;SDS011;23119;51.842;-2.230;2023-02-17T05:11:37;3.17;;;0.40;;
37221;SDS011;23119;51.842;-2.230;2023-02-17T05:14:05;2.25;;;0.30;;
37221;SDS011;23119;51.842;-2.230;2023-02-17T05:16:33;4.43;;;0.40;;
37221;SDS011;23119;51.842;-2.230;2023-02-17T05:18:59;3.80;;;0.70;;
37221;SDS011;23119;51.842;-2.230;2023-02-17T05:21:25;4.63;;;0.88;;
37221;SDS011;23119;51.842;-2.230;2023-02-17T05:23:55;2.63;;;0.65;;
37221;SDS011;23119;51.842;-2.230;2023-02-17T05:26:25;5.90;;;0.50;;
37221;SDS011;23119;51.842;-2.230;2023-02-17T05:28:54;1.73;;;0.60;;
37221;SDS011;23119;51.842;-2.230;2023-02-17T05:31:22;1.55;;;0.40;;
37221;SDS011;23119;51.842;-2.230;2023-02-17T05:33:52;3.70;;;0.88;;
37221;SDS011;23119;51.842;-2.230;2023-02-17T05:36:21;4.93;;;0.63;;
37221;SDS011;23119;51.842;-2.230;2023-02-17T05:38:46;2.38;;;0.50;;
37221;SDS011;23119;51.842;-2.230;2023-02-17T05:41:19;5.15;;;0.73;;
37221;SDS011;23119;51.842;-2.230;2023-02-17T05:43:47;3.30;;;0.65;;
37221;SDS011;23119;51.842;-2.230;2023-02-17T05:46:18;2.88;;;0.50;;
37221;SDS011;23119;51.842;-2.230;2023-02-17T05:48:44;4.40;;;0.70;;
37221;SDS011;23119;51.842;-2.230;2023-02-17T05:51:13;2.42;;;0.40;;
37221;SDS011;23119;51.842;-2.230;2023-02-17T05:53:43;1.00;;;0.30;;
37221;SDS011;23119;51.842;-2.230;2023-02-17T05:56:09;5.55;;;0.47;;
37221;SDS011;23119;51.842;-2.230;2023-02-17T05:58:35;2.45;;;0.50;;
37221;SDS011;23119;51.842;-2.230;2023-02-17T06:01:01;1.70;;;0.40;;
37221;SDS011;23119;51.842;-2.230;2023-02-17T06:03:33;4.43;;;1.55;;
37221;SDS011;23119;51.842;-2.230;2023-02-17T06:05:59;2.95;;;0.88;;
37221;SDS011;23119;51.842;-2.230;2023-02-17T06:08:25;2.80;;;0.50;;
37221;SDS011;23119;51.842;-2.230;2023-02-17T06:10:51;2.35;;;0.60;;
37221;SDS011;23119;51.842;-2.230;2023-02-17T06:13:20;2.03;;;0.45;;
37221;SDS011;23119;51.842;-2.230;2023-02-17T06:15:54;2.58;;;0.60;;
37221;SDS011;23119;51.842;-2.230;2023-02-17T06:18:19;5.30;;;0.63;;
37221;SDS011;23119;51.842;-2.230;2023-02-17T06:20:45;2.63;;;0.50;;
37221;SDS011;23119;51.842;-2.230;2023-02-17T06:23:14;3.58;;;0.80;;
37221;SDS011;23119;51.842;-2.230;2023-02-17T06:25:40;2.53;;;0.60;;
37221;SDS011;23119;51.842;-2.230;2023-02-17T06:28:06;4.65;;;0.40;;
37221;SDS011;23119;51.842;-2.230;2023-02-17T06:30:34;4.75;;;0.57;;
37221;SDS011;23119;51.842;-2.230;2023-02-17T06:33:03;1.60;;;0.52;;
37221;SDS011;23119;51.842;-2.230;2023-02-17T06:35:29;1.33;;;0.30;;
37221;SDS011;23119;51.842;-2.230;2023-02-17T06:37:57;4.15;;;0.40;;
37221;SDS011;23119;51.842;-2.230;2023-02-17T06:40:23;5.97;;;0.40;;
37221;SDS011;23119;51.842;-2.230;2023-02-17T06:42:54;1.75;;;0.50;;
37221;SDS011;23119;51.842;-2.230;2023-02-17T06:45:19;3.00;;;0.40;;
37221;SDS011;23119;51.842;-2.230;2023-02-17T06:47:45;2.90;;;0.40;;
37221;SDS011;23119;51.842;-2.230;2023-02-17T06:50:11;1.38;;;0.40;;
37221;SDS011;23119;51.842;-2.230;2023-02-17T06:52:39;1.83;;;0.40;;
37221;SDS011;23119;51.842;-2.230;2023-02-17T06:55:13;2.35;;;0.25;;
37221;SDS011;23119;51.842;-2.230;2023-02-17T06:57:38;0.70;;;0.45;;
37221;SDS011;23119;51.842;-2.230;2023-02-17T07:00:07;2.10;;;0.30;;
37221;SDS011;23119;51.842;-2.230;2023-02-17T07:02:36;2.70;;;0.30;;
37221;SDS011;23119;51.842;-2.230;2023-02-17T07:05:05;2.10;;;0.40;;
37221;SDS011;23119;51.842;-2.230;2023-02-17T07:07:34;1.70;;;0.50;;
37221;SDS011;23119;51.842;-2.230;2023-02-17T07:10:02;2.85;;;0.40;;
37221;SDS011;23119;51.842;-2.230;2023-02-17T07:12:29;1.65;;;0.30;;
37221;SDS011;23119;51.842;-2.230;2023-02-17T07:14:57;0.82;;;0.40;;
37221;SDS011;23119;51.842;-2.230;2023-02-17T07:17:23;0.70;;;0.52;;
37221;SDS011;23119;51.842;-2.230;2023-02-17T07:19:51;1.92;;;0.30;;
37221;SDS011;23119;51.842;-2.230;2023-02-17T07:22:16;1.40;;;0.20;;
37221;SDS011;23119;51.842;-2.230;2023-02-17T07:24:42;1.58;;;0.20;;
37221;SDS011;23119;51.842;-2.230;2023-02-17T07:27:08;0.85;;;0.20;;
37221;SDS011;23119;51.842;-2.230;2023-02-17T07:29:34;3.42;;;0.30;;
37221;SDS011;23119;51.842;-2.230;2023-02-17T07:32:02;1.30;;;0.20;;
37221;SDS011;23119;51.842;-2.230;2023-02-17T07:34:31;0.90;;;0.20;;
37221;SDS011;23119;51.842;-2.230;2023-02-17T07:36:59;1.17;;;0.20;;
37221;SDS011;23119;51.842;-2.230;2023-02-17T07:39:33;2.55;;;0.30;;
37221;SDS011;23119;51.842;-2.230;2023-02-17T07:42:09;1.27;;;0.30;;
37221;SDS011;23119;51.842;-2.230;2023-02-17T07:44:37;0.93;;;0.30;;
37221;SDS011;23119;51.842;-2.230;2023-02-17T07:47:03;0.85;;;0.40;;
37221;SDS011;23119;51.842;-2.230;2023-02-17T07:49:34;1.48;;;0.30;;
37221;SDS011;23119;51.842;-2.230;2023-02-17T07:52:00;1.67;;;0.25;;
37221;SDS011;23119;51.842;-2.230;2023-02-17T07:54:26;0.63;;;0.30;;
37221;SDS011;23119;51.842;-2.230;2023-02-17T07:56:52;0.75;;;0.20;;
37221;SDS011;23119;51.842;-2.230;2023-02-17T07:59:18;2.95;;;0.40;;
37221;SDS011;23119;51.842;-2.230;2023-02-17T08:01:45;1.48;;;0.30;;
37221;SDS011;23119;51.842;-2.230;2023-02-17T08:04:14;3.33;;;0.40;;
37221;SDS011;23119;51.842;-2.230;2023-02-17T08:06:40;0.60;;;0.30;;
37221;SDS011;23119;51.842;-2.230;2023-02-17T08:09:06;1.55;;;0.40;;
37221;SDS011;23119;51.842;-2.230;2023-02-17T08:11:52;1.25;;;0.30;;
37221;SDS011;23119;51.842;-2.230;2023-02-17T08:14:36;2.60;;;0.47;;
37221;SDS011;23119;51.842;-2.230;2023-02-17T08:17:03;1.10;;;0.40;;
37221;SDS011;23119;51.842;-2.230;2023-02-17T08:19:34;1.05;;;0.32;;
37221;SDS011;23119;51.842;-2.230;2023-02-17T08:22:02;2.00;;;0.50;;
37221;SDS011;23119;51.842;-2.230;2023-02-17T08:24:28;3.85;;;0.50;;
37221;SDS011;23119;51.842;-2.230;2023-02-17T08:27:02;0.68;;;0.30;;
37221;SDS011;23119;51.842;-2.230;2023-02-17T08:29:31;1.40;;;0.47;;
37221;SDS011;23119;51.842;-2.230;2023-02-17T08:31:59;3.25;;;0.50;;
37221;SDS011;23119;51.842;-2.230;2023-02-17T08:34:29;1.85;;;0.60;;
37221;SDS011;23119;51.842;-2.230;2023-02-17T08:36:59;3.13;;;0.50;;
37221;SDS011;23119;51.842;-2.230;2023-02-17T08:39:31;5.70;;;0.60;;
37221;SDS011;23119;51.842;-2.230;2023-02-17T08:41:59;5.75;;;0.60;;
37221;SDS011;23119;51.842;-2.230;2023-02-17T08:44:30;3.00;;;0.43;;
37221;SDS011;23119;51.842;-2.230;2023-02-17T08:47:06;3.72;;;0.60;;
37221;SDS011;23119;51.842;-2.230;2023-02-17T08:49:37;2.67;;;0.35;;
37221;SDS011;23119;51.842;-2.230;2023-02-17T08:52:04;2.40;;;0.50;;
37221;SDS011;23119;51.842;-2.230;2023-02-17T08:54:32;3.15;;;0.75;;
37221;SDS011;23119;51.842;-2.230;2023-02-17T08:57:01;1.95;;;0.40;;
37221;SDS011;23119;51.842;-2.230;2023-02-17T08:59:27;1.58;;;0.40;;
37221;SDS011;23119;51.842;-2.230;2023-02-17T09:01:56;0.60;;;0.30;;
37221;SDS011;23119;51.842;-2.230;2023-02-17T09:04:25;0.68;;;0.30;;
37221;SDS011;23119;51.842;-2.230;2023-02-17T09:06:51;1.70;;;0.30;;
37221;SDS011;23119;51.842;-2.230;2023-02-17T09:09:21;3.13;;;0.40;;
37221;SDS011;23119;51.842;-2.230;2023-02-17T09:11:50;2.17;;;0.28;;
37221;SDS011;23119;51.842;-2.230;2023-02-17T09:14:19;2.35;;;0.35;;
37221;SDS011;23119;51.842;-2.230;2023-02-17T09:16:50;1.33;;;0.30;;
37221;SDS011;23119;51.842;-2.230;2023-02-17T09:19:17;4.05;;;0.35;;
37221;SDS011;23119;51.842;-2.230;2023-02-17T09:21:43;3.85;;;0.35;;
37221;SDS011;23119;51.842;-2.230;2023-02-17T09:24:09;1.15;;;0.30;;
37221;SDS011;23119;51.842;-2.230;2023-02-17T09:26:36;2.40;;;0.50;;
37221;SDS011;23119;51.842;-2.230;2023-02-17T09:29:02;0.60;;;0.30;;
37221;SDS011;23119;51.842;-2.230;2023-02-17T09:31:32;1.35;;;0.40;;
37221;SDS011;23119;51.842;-2.230;2023-02-17T09:33:59;1.25;;;0.30;;
37221;SDS011;23119;51.842;-2.230;2023-02-17T09:36:37;2.85;;;0.30;;
37221;SDS011;23119;51.842;-2.230;2023-02-17T09:39:22;2.17;;;1.40;;
37221;SDS011;23119;51.842;-2.230;2023-02-17T09:41:50;2.08;;;0.57;;
37221;SDS011;23119;51.842;-2.230;2023-02-17T09:44:24;1.92;;;0.55;;
37221;SDS011;23119;51.842;-2.230;2023-02-17T09:49:59;2.15;;;0.50;;
37221;SDS011;23119;51.842;-2.230;2023-02-17T09:55:28;2.53;;;0.60;;
37221;SDS011;23119;51.842;-2.230;2023-02-17T09:58:13;0.43;;;0.20;;
37221;SDS011;23119;51.842;-2.230;2023-02-17T10:00:45;1.33;;;0.40;;
37221;SDS011;23119;51.842;-2.230;2023-02-17T10:05:44;1.33;;;0.40;;
37221;SDS011;23119;51.842;-2.230;2023-02-17T10:08:26;1.23;;;0.30;;
37221;SDS011;23119;51.842;-2.230;2023-02-17T10:11:10;6.07;;;0.30;;
37221;SDS011;23119;51.842;-2.230;2023-02-17T10:13:45;1.38;;;0.20;;
37221;SDS011;23119;51.842;-2.230;2023-02-17T10:16:27;1.67;;;0.20;;
37221;SDS011;23119;51.842;-2.230;2023-02-17T10:19:01;0.55;;;0.22;;
37221;SDS011;23119;51.842;-2.230;2023-02-17T10:22:00;1.00;;;0.20;;
37221;SDS011;23119;51.842;-2.230;2023-02-17T10:24:47;1.48;;;0.20;;
37221;SDS011;23119;51.842;-2.230;2023-02-17T10:27:17;0.30;;;0.10;;
37221;SDS011;23119;51.842;-2.230;2023-02-17T10:32:30;0.30;;;0.10;;
37221;SDS011;23119;51.842;-2.230;2023-02-17T10:36:04;0.40;;;0.20;;
37221;SDS011;23119;51.842;-2.230;2023-02-17T10:38:16;1.95;;;0.30;;
37221;SDS011;23119;51.842;-2.230;2023-02-17T10:40:50;0.60;;;0.28;;
37221;SDS011;23119;51.842;-2.230;2023-02-17T10:43:25;0.40;;;0.20;;
37221;SDS011;23119;51.842;-2.230;2023-02-17T10:45:54;1.63;;;0.22;;
37221;SDS011;23119;51.842;-2.230;2023-02-17T10:49:09;0.98;;;0.17;;
37221;SDS011;23119;51.842;-2.230;2023-02-17T10:51:20;0.82;;;0.20;;
37221;SDS011;23119;51.842;-2.230;2023-02-17T10:54:11;0.73;;;0.40;;
37221;SDS011;23119;51.842;-2.230;2023-02-17T10:57:07;2.53;;;0.20;;
37221;SDS011;23119;51.842;-2.230;2023-02-17T10:59:39;2.08;;;0.30;;
37221;SDS011;23119;51.842;-2.230;2023-02-17T11:02:14;0.85;;;0.30;;
37221;SDS011;23119;51.842;-2.230;2023-02-17T11:05:02;0.98;;;0.20;;
37221;SDS011;23119;51.842;-2.230;2023-02-17T11:07:32;0.80;;;0.30;;
37221;SDS011;23119;51.842;-2.230;2023-02-17T11:10:19;0.52;;;0.20;;
37221;SDS011;23119;51.842;-2.230;2023-02-17T11:12:45;0.63;;;0.20;;
37221;SDS011;23119;51.842;-2.230;2023-02-17T11:15:15;1.88;;;0.30;;
37221;SDS011;23119;51.842;-2.230;2023-02-17T11:17:45;1.52;;;0.43;;
37221;SDS011;23119;51.842;-2.230;2023-02-17T11:22:42;1.17;;;0.47;;
37221;SDS011;23119;51.842;-2.230;2023-02-17T11:25:20;0.82;;;0.45;;
37221;SDS011;23119;51.842;-2.230;2023-02-17T11:27:51;0.75;;;0.40;;
37221;SDS011;23119;51.842;-2.230;2023-02-17T11:30:22;1.48;;;0.50;;
37221;SDS011;23119;51.842;-2.230;2023-02-17T11:32:48;1.52;;;0.77;;
37221;SDS011;23119;51.842;-2.230;2023-02-17T11:35:21;0.82;;;0.40;;
37221;SDS011;23119;51.842;-2.230;2023-02-17T11:38:19;1.75;;;0.40;;
37221;SDS011;23119;51.842;-2.230;2023-02-17T11:41:08;2.63;;;0.47;;
37221;SDS011;23119;51.842;-2.230;2023-02-17T11:43:37;0.70;;;0.40;;
37221;SDS011;23119;51.842;-2.230;2023-02-17T11:46:16;1.40;;;0.50;;
37221;SDS011;23119;51.842;-2.230;2023-02-17T11:52:03;1.52;;;0.43;;
37221;SDS011;23119;51.842;-2.230;2023-02-17T11:54:42;1.30;;;0.57;;
37221;SDS011;23119;51.842;-2.230;2023-02-17T11:57:43;1.35;;;0.40;;
37221;SDS011;23119;51.842;-2.230;2023-02-17T12:20:11;1.48;;;0.40;;
37221;SDS011;23119;51.842;-2.230;2023-02-17T12:26:06;2.20;;;0.30;;
37221;SDS011;23119;51.842;-2.230;2023-02-17T12:29:05;0.70;;;0.20;;
37221;SDS011;23119;51.842;-2.230;2023-02-17T12:34:57;0.90;;;0.25;;
37221;SDS011;23119;51.842;-2.230;2023-02-17T12:37:29;0.50;;;0.30;;
37221;SDS011;23119;51.842;-2.230;2023-02-17T12:39:58;1.63;;;0.15;;
37221;SDS011;23119;51.842;-2.230;2023-02-17T12:42:34;1.05;;;0.20;;
37221;SDS011;23119;51.842;-2.230;2023-02-17T12:45:09;0.73;;;0.20;;
37221;SDS011;23119;51.842;-2.230;2023-02-17T12:50:24;1.73;;;0.60;;
37221;SDS011;23119;51.842;-2.230;2023-02-17T12:52:56;0.70;;;0.30;;
37221;SDS011;23119;51.842;-2.230;2023-02-17T12:55:26;2.78;;;0.30;;
37221;SDS011;23119;51.842;-2.230;2023-02-17T12:58:15;0.77;;;0.20;;
37221;SDS011;23119;51.842;-2.230;2023-02-17T13:00:51;2.38;;;0.20;;
37221;SDS011;23119;51.842;-2.230;2023-02-17T13:03:31;0.35;;;0.17;;
37221;SDS011;23119;51.842;-2.230;2023-02-17T13:06:02;0.40;;;0.10;;
37221;SDS011;23119;51.842;-2.230;2023-02-17T13:08:38;0.60;;;0.20;;
37221;SDS011;23119;51.842;-2.230;2023-02-17T13:11:13;0.45;;;0.20;;
37221;SDS011;23119;51.842;-2.230;2023-02-17T13:13:51;2.50;;;0.20;;
37221;SDS011;23119;51.842;-2.230;2023-02-17T13:16:17;0.25;;;0.10;;
37221;SDS011;23119;51.842;-2.230;2023-02-17T13:18:44;0.20;;;0.10;;
37221;SDS011;23119;51.842;-2.230;2023-02-17T13:26:41;0.85;;;0.10;;
37221;SDS011;23119;51.842;-2.230;2023-02-17T13:29:20;0.22;;;0.00;;
37221;SDS011;23119;51.842;-2.230;2023-02-17T13:31:59;0.95;;;0.10;;
37221;SDS011;23119;51.842;-2.230;2023-02-17T13:36:55;0.45;;;0.10;;
37221;SDS011;23119;51.842;-2.230;2023-02-17T13:41:50;1.15;;;0.10;;
37221;SDS011;23119;51.842;-2.230;2023-02-17T13:44:27;0.98;;;0.10;;
37221;SDS011;23119;51.842;-2.230;2023-02-17T13:47:05;0.43;;;0.00;;
37221;SDS011;23119;51.842;-2.230;2023-02-17T13:49:41;1.55;;;0.00;;
37221;SDS011;23119;51.842;-2.230;2023-02-17T13:52:16;0.10;;;0.00;;
37221;SDS011;23119;51.842;-2.230;2023-02-17T13:54:50;0.43;;;0.10;;
37221;SDS011;23119;51.842;-2.230;2023-02-17T13:57:21;0.17;;;0.00;;
37221;SDS011;23119;51.842;-2.230;2023-02-17T14:00:03;0.30;;;0.00;;
37221;SDS011;23119;51.842;-2.230;2023-02-17T14:02:52;0.57;;;0.08;;
37221;SDS011;23119;51.842;-2.230;2023-02-17T14:05:20;0.10;;;0.00;;
37221;SDS011;23119;51.842;-2.230;2023-02-17T14:07:58;0.25;;;0.00;;
37221;SDS011;23119;51.842;-2.230;2023-02-17T14:10:30;0.82;;;0.00;;
37221;SDS011;23119;51.842;-2.230;2023-02-17T14:12:57;0.30;;;0.00;;
37221;SDS011;23119;51.842;-2.230;2023-02-17T14:15:26;0.00;;;0.00;;
37221;SDS011;23119;51.842;-2.230;2023-02-17T14:17:53;0.20;;;0.00;;
37221;SDS011;23119;51.842;-2.230;2023-02-17T14:20:32;0.08;;;0.00;;
37221;SDS011;23119;51.842;-2.230;2023-02-17T14:23:07;0.10;;;0.00;;
37221;SDS011;23119;51.842;-2.230;2023-02-17T14:25:40;0.52;;;0.00;;
37221;SDS011;23119;51.842;-2.230;2023-02-17T14:30:51;0.30;;;0.00;;
37221;SDS011;23119;51.842;-2.230;2023-02-17T14:33:24;0.15;;;0.00;;
37221;SDS011;23119;51.842;-2.230;2023-02-17T14:36:00;0.10;;;0.00;;
37221;SDS011;23119;51.842;-2.230;2023-02-17T14:38:34;0.32;;;0.00;;
37221;SDS011;23119;51.842;-2.230;2023-02-17T14:41:10;0.40;;;0.03;;
37221;SDS011;23119;51.842;-2.230;2023-02-17T14:43:41;0.45;;;0.10;;
37221;SDS011;23119;51.842;-2.230;2023-02-17T14:46:07;2.92;;;0.13;;
37221;SDS011;23119;51.842;-2.230;2023-02-17T14:48:35;0.52;;;0.10;;
37221;SDS011;23119;51.842;-2.230;2023-02-17T14:51:01;0.50;;;0.05;;
37221;SDS011;23119;51.842;-2.230;2023-02-17T14:58:50;1.02;;;0.20;;
37221;SDS011;23119;51.842;-2.230;2023-02-17T15:01:22;0.77;;;0.20;;
37221;SDS011;23119;51.842;-2.230;2023-02-17T15:03:49;0.50;;;0.20;;
37221;SDS011;23119;51.842;-2.230;2023-02-17T15:08:48;1.88;;;0.20;;
37221;SDS011;23119;51.842;-2.230;2023-02-17T15:11:26;0.55;;;0.10;;
37221;SDS011;23119;51.842;-2.230;2023-02-17T15:13:55;0.30;;;0.10;;
37221;SDS011;23119;51.842;-2.230;2023-02-17T15:16:21;0.63;;;0.10;;
37221;SDS011;23119;51.842;-2.230;2023-02-17T15:18:51;0.50;;;0.20;;
37221;SDS011;23119;51.842;-2.230;2023-02-17T15:21:27;0.55;;;0.10;;
37221;SDS011;23119;51.842;-2.230;2023-02-17T15:23:55;0.85;;;0.10;;
37221;SDS011;23119;51.842;-2.230;2023-02-17T15:26:28;0.43;;;0.10;;
37221;SDS011;23119;51.842;-2.230;2023-02-17T15:28:57;0.93;;;0.20;;
37221;SDS011;23119;51.842;-2.230;2023-02-17T15:31:26;1.45;;;0.10;;
37221;SDS011;23119;51.842;-2.230;2023-02-17T15:33:59;0.47;;;0.13;;
37221;SDS011;23119;51.842;-2.230;2023-02-17T15:36:32;1.35;;;0.40;;
37221;SDS011;23119;51.842;-2.230;2023-02-17T15:38:59;0.70;;;0.20;;
37221;SDS011;23119;51.842;-2.230;2023-02-17T15:41:26;0.80;;;0.20;;
37221;SDS011;23119;51.842;-2.230;2023-02-17T15:43:57;1.05;;;0.10;;
37221;SDS011;23119;51.842;-2.230;2023-02-17T15:46:39;0.70;;;0.20;;
37221;SDS011;23119;51.842;-2.230;2023-02-17T15:49:10;0.38;;;0.10;;
37221;SDS011;23119;51.842;-2.230;2023-02-17T15:51:42;0.50;;;0.15;;
37221;SDS011;23119;51.842;-2.230;2023-02-17T15:54:08;1.38;;;0.10;;
37221;SDS011;23119;51.842;-2.230;2023-02-17T15:56:45;2.78;;;0.20;;
37221;SDS011;23119;51.842;-2.230;2023-02-17T15:59:34;0.90;;;0.10;;
37221;SDS011;23119;51.842;-2.230;2023-02-17T16:02:02;0.40;;;0.20;;
37221;SDS011;23119;51.842;-2.230;2023-02-17T16:04:47;1.65;;;0.20;;
37221;SDS011;23119;51.842;-2.230;2023-02-17T16:07:18;1.52;;;0.30;;
37221;SDS011;23119;51.842;-2.230;2023-02-17T16:09:46;0.80;;;0.30;;
37221;SDS011;23119;51.842;-2.230;2023-02-17T16:12:18;0.40;;;0.20;;
37221;SDS011;23119;51.842;-2.230;2023-02-17T16:14:50;1.33;;;0.40;;
37221;SDS011;23119;51.842;-2.230;2023-02-17T16:17:17;1.38;;;0.50;;
37221;SDS011;23119;51.842;-2.230;2023-02-17T16:19:42;1.05;;;0.45;;
37221;SDS011;23119;51.842;-2.230;2023-02-17T16:22:11;1.42;;;0.40;;
37221;SDS011;23119;51.842;-2.230;2023-02-17T16:24:41;1.58;;;0.57;;
37221;SDS011;23119;51.842;-2.230;2023-02-17T16:27:13;2.35;;;0.50;;